EDT,Max TemperatureF,Mean TemperatureF,Min TemperatureF,Max Dew PointF,MeanDew PointF,Min DewpointF,Max Humidity, Mean Humidity, Min Humidity, Max Sea Level PressureIn, Mean Sea Level PressureIn, Min Sea Level PressureIn, Max VisibilityMiles, Mean VisibilityMiles, Min VisibilityMiles, Max Wind SpeedMPH, Mean Wind SpeedMPH, Max Gust SpeedMPH,PrecipitationIn, CloudCover, Events, WindDirDegrees
2013-5-1,69,52,35,36,29,25,75,43,20,30.48,30.41,30.34,10,10,10,16,5,20,0.00,0,,116
2013-5-2,73,55,37,39,36,32,87,49,25,30.47,30.41,30.33,10,10,10,13,3,22,0.00,0,,133
2013-5-3,66,56,46,37,32,27,62,41,24,30.45,30.39,30.34,10,10,10,14,8,22,0.00,2,,113
2013-5-4,69,53,37,39,35,30,76,51,27,30.37,30.28,30.21,10,10,10,15,5,21,0.00,0,,97
2013-5-5,68,52,37,37,32,25,87,52,21,30.29,30.24,30.18,10,9,0,14,6,21,0.00,0,,100
2013-5-6,71,53,35,46,38,30,87,59,29,30.26,30.20,30.13,10,10,5,13,4,17,0.00,0,,143
2013-5-7,73,58,44,48,45,39,87,62,36,30.19,30.15,30.09,10,10,1,16,5,22,0.00,1,,112
2013-5-8,60,58,53,55,52,48,88,82,77,30.14,30.06,29.98,10,9,2,17,7,23,0.00,7,Thunderstorm,99
2013-5-9,64,57,50,52,48,46,88,78,52,30.01,29.96,29.91,10,7,0,10,5,,0.00,7,,118
2013-5-10,73,58,44,54,49,43,93,69,38,30.03,29.97,29.92,10,8,0,8,2,,0.00,3,,233
2013-5-11,62,58,55,57,54,50,88,84,72,29.93,29.79,29.71,10,8,2,10,5,21,0.00,7,,203
2013-5-12,57,48,39,52,35,21,88,58,28,29.90,29.76,29.69,10,10,8,21,7,29,0.00,4,,271
2013-5-13,46,40,33,30,25,19,75,56,43,30.10,30.00,29.90,10,10,10,20,9,30,0.00,5,,282
2013-5-14,53,42,30,28,24,19,80,52,26,30.12,30.08,30.02,10,10,10,15,6,21,0.00,0,,288
2013-5-15,69,51,33,52,39,25,82,63,49,30.05,29.87,29.66,10,10,10,16,4,24,0.00,4,,155
2013-5-16,75,60,44,45,38,34,81,43,23,29.91,29.80,29.75,10,10,10,20,7,28,0.00,1,,290
2013-5-17,57,50,44,37,34,30,66,56,36,30.23,30.07,29.92,10,10,10,15,6,18,0.00,0,,314
2013-5-18,64,52,41,46,41,36,82,65,40,30.31,30.28,30.23,10,10,9,14,3,16,0.00,4,,148
2013-5-19,55,53,51,52,49,46,88,85,77,30.31,30.26,30.20,10,7,0,12,6,,0.00,8,,125
2013-5-20,78,66,53,61,55,50,94,77,50,30.18,30.08,30.00,10,6,0,9,3,,0.00,5,,261
2013-5-21,86,70,53,66,60,52,94,71,43,30.04,29.94,29.87,10,6,0,12,4,16,0.00,3,,234
2013-5-22,71,66,62,64,63,59,94,85,78,29.94,29.91,29.88,9,2,0,12,4,16,0.00,6,Thunderstorm,138
2013-5-23,73,64,55,63,58,52,94,84,65,29.91,29.85,29.80,10,6,0,9,2,,0.00,6,Thunderstorm,182
2013-5-24,48,44,39,45,37,34,87,79,76,29.99,29.92,29.80,10,10,7,18,14,29,0.00,8,,317
2013-5-25,48,44,37,37,35,34,87,75,62,30.02,29.98,29.92,10,10,8,26,16,38,0.00,8,,317
2013-5-26,59,48,37,36,33,28,87,61,36,30.20,30.05,29.95,10,10,10,24,12,33,0.00,4,,301
2013-5-27,68,52,35,39,33,28,81,51,28,30.25,30.20,30.16,10,10,8,14,5,24,0.00,0,,294
2013-5-28,55,48,41,50,43,36,88,78,58,30.22,30.19,30.14,10,6,0,10,3,,0.00,5,,90
2013-5-29,78,66,53,64,57,48,94,75,54,30.14,30.09,30.04,10,6,0,13,4,18,0.00,6,,195
2013-5-30,84,70,57,64,60,54,88,67,45,30.19,30.15,30.11,10,8,0,10,2,22,0.00,1,Thunderstorm,266
2013-5-31,89,74,60,64,59,55,88,61,38,30.19,30.13,30.05,10,9,2,15,2,21,0.00,1,Thunderstorm,205